createdAt,value
2022-11-29T00:01:39.667Z,14.43
2022-11-29T00:04:08.213Z,13.68
2022-11-29T00:06:36.923Z,14.15
2022-11-29T00:09:07.280Z,13.45
2022-11-29T00:11:54.660Z,11.93
2022-11-29T00:14:25.344Z,13.07
2022-11-29T00:16:56.093Z,13.95
2022-11-29T00:19:24.111Z,13.15
2022-11-29T00:21:52.079Z,13.25
2022-11-29T00:24:20.145Z,15.90
2022-11-29T00:26:48.971Z,15.32
2022-11-29T00:29:17.371Z,13.52
2022-11-29T00:31:46.955Z,14.60
2022-11-29T00:34:14.862Z,15.05
2022-11-29T00:36:42.836Z,16.90
2022-11-29T00:39:12.850Z,13.80
2022-11-29T00:41:41.284Z,12.73
2022-11-29T00:44:09.640Z,15.23
2022-11-29T00:46:37.680Z,13.77
2022-11-29T00:49:07.108Z,13.38
2022-11-29T00:51:35.259Z,13.13
2022-11-29T00:54:03.263Z,11.15
2022-11-29T00:56:31.405Z,11.90
2022-11-29T00:58:59.412Z,12.73
2022-11-29T01:01:27.557Z,13.38
2022-11-29T01:03:55.576Z,13.07
2022-11-29T01:06:24.785Z,15.10
2022-11-29T01:08:52.744Z,13.70
2022-11-29T01:11:22.240Z,16.27
2022-11-29T01:13:51.239Z,11.77
2022-11-29T01:16:19.312Z,13.77
2022-11-29T01:18:47.392Z,14.10
2022-11-29T01:21:17.113Z,12.82
2022-11-29T01:23:48.075Z,13.93
2022-11-29T01:26:18.772Z,16.05
2022-11-29T01:28:47.872Z,12.77
2022-11-29T01:31:18.684Z,16.70
2022-11-29T01:33:47.372Z,15.27
2022-11-29T01:36:16.156Z,13.00
2022-11-29T01:38:44.141Z,11.80
2022-11-29T01:41:15.643Z,13.60
2022-11-29T01:43:59.645Z,11.77
2022-11-29T01:46:29.152Z,13.65
2022-11-29T01:49:01.575Z,14.50
2022-11-29T01:51:30.921Z,16.42
2022-11-29T01:53:59.612Z,16.38
2022-11-29T01:56:30.972Z,13.27
2022-11-29T01:58:59.145Z,16.83
2022-11-29T02:01:27.335Z,13.98
2022-11-29T02:03:55.688Z,13.68
2022-11-29T02:06:24.540Z,16.17
2022-11-29T02:08:52.464Z,14.73
2022-11-29T02:11:46.655Z,14.52
2022-11-29T02:14:37.366Z,12.43
2022-11-29T02:17:16.698Z,16.67
2022-11-29T02:20:10.160Z,16.02
2022-11-29T02:22:42.683Z,13.63
2022-11-29T02:25:25.230Z,16.85
2022-11-29T02:28:31.800Z,12.88
2022-11-29T02:31:24.988Z,16.95
2022-11-29T02:34:09.028Z,15.55
2022-11-29T02:36:59.124Z,15.88
2022-11-29T02:39:58.833Z,13.48
2022-11-29T02:42:56.576Z,17.25
2022-11-29T02:45:50.001Z,13.90
2022-11-29T02:48:42.280Z,15.65
2022-11-29T02:51:18.575Z,14.90
2022-11-29T02:53:54.711Z,14.68
2022-11-29T02:56:30.340Z,13.73
2022-11-29T02:59:04.553Z,12.27
2022-11-29T03:01:38.283Z,17.73
2022-11-29T03:04:14.917Z,16.50
2022-11-29T03:06:51.446Z,14.52
2022-11-29T03:09:29.903Z,14.45
2022-11-29T03:12:08.765Z,14.25
2022-11-29T03:14:48.999Z,14.80
2022-11-29T03:17:26.036Z,13.55
2022-11-29T03:20:08.480Z,13.75
2022-11-29T03:22:44.740Z,19.27
2022-11-29T03:25:20.111Z,14.48
2022-11-29T03:27:53.969Z,14.10
2022-11-29T03:30:22.727Z,12.07
2022-11-29T03:33:01.918Z,11.68
2022-11-29T03:35:37.700Z,17.50
2022-11-29T03:38:17.161Z,13.43
2022-11-29T03:40:50.972Z,12.93
2022-11-29T03:43:24.749Z,12.27
2022-11-29T03:45:58.545Z,20.50
2022-11-29T03:48:32.264Z,13.85
2022-11-29T03:51:04.741Z,17.58
2022-11-29T03:53:40.804Z,16.38
2022-11-29T03:56:24.903Z,14.02
2022-11-29T03:59:02.867Z,14.30
2022-11-29T04:01:56.803Z,16.63
2022-11-29T04:04:59.389Z,14.57
2022-11-29T04:08:01.731Z,14.57
2022-11-29T04:10:58.103Z,15.23
2022-11-29T04:13:57.729Z,13.70
2022-11-29T04:17:04.945Z,17.20
2022-11-29T04:20:14.943Z,15.07
2022-11-29T04:23:11.706Z,14.10
2022-11-29T04:25:52.935Z,14.20
2022-11-29T04:29:00.126Z,13.55
2022-11-29T04:31:39.015Z,11.93
2022-11-29T04:34:31.595Z,14.07
2022-11-29T04:37:19.670Z,13.90
2022-11-29T04:40:10.731Z,13.30
2022-11-29T04:43:05.120Z,13.10
2022-11-29T04:46:15.016Z,12.48
2022-11-29T04:49:07.563Z,10.82
2022-11-29T04:51:48.863Z,13.43
2022-11-29T04:54:25.745Z,13.52
2022-11-29T04:57:00.106Z,18.55
2022-11-29T04:59:36.639Z,12.88
2022-11-29T05:02:14.936Z,16.27
2022-11-29T05:04:51.696Z,20.48
2022-11-29T05:07:30.811Z,16.25
2022-11-29T05:10:07.179Z,19.63
2022-11-29T05:12:44.109Z,15.02
2022-11-29T05:15:42.680Z,18.00
2022-11-29T05:18:19.804Z,13.32
2022-11-29T05:20:53.826Z,16.80
2022-11-29T05:23:45.827Z,17.95
2022-11-29T05:26:17.541Z,23.38
2022-11-29T05:28:54.609Z,18.63
2022-11-29T05:31:52.511Z,19.90
2022-11-29T05:34:38.981Z,16.27
2022-11-29T05:37:22.753Z,15.38
2022-11-29T05:40:11.896Z,17.88
2022-11-29T05:42:57.317Z,16.13
2022-11-29T05:45:30.651Z,14.27
2022-11-29T05:48:06.082Z,14.00
2022-11-29T05:50:38.654Z,17.55
2022-11-29T05:53:18.047Z,15.30
2022-11-29T05:55:56.191Z,12.85
2022-11-29T05:58:39.339Z,17.27
2022-11-29T06:01:19.472Z,16.40
2022-11-29T06:03:58.398Z,14.40
2022-11-29T06:06:39.205Z,14.55
2022-11-29T06:09:16.162Z,14.70
2022-11-29T06:11:47.888Z,16.48
2022-11-29T06:14:33.920Z,16.48
2022-11-29T06:17:19.564Z,14.13
2022-11-29T06:20:04.197Z,17.13
2022-11-29T06:22:52.831Z,16.02
2022-11-29T06:25:37.260Z,14.82
2022-11-29T06:28:23.718Z,15.52
2022-11-29T06:31:02.094Z,16.85
2022-11-29T06:33:39.713Z,19.10
2022-11-29T06:36:16.896Z,18.92
2022-11-29T06:38:45.877Z,16.95
2022-11-29T06:41:19.021Z,16.20
2022-11-29T06:43:47.972Z,18.95
2022-11-29T06:46:27.871Z,13.77
2022-11-29T06:49:03.458Z,14.93
2022-11-29T06:51:43.959Z,16.00
2022-11-29T06:54:25.973Z,12.23
2022-11-29T06:57:01.599Z,14.98
2022-11-29T06:59:42.897Z,14.57
2022-11-29T07:02:29.057Z,13.93
2022-11-29T07:05:09.324Z,15.35
2022-11-29T07:07:39.701Z,19.65
2022-11-29T07:10:13.530Z,15.50
2022-11-29T07:12:43.348Z,15.10
2022-11-29T07:15:15.468Z,16.33
2022-11-29T07:17:56.275Z,15.05
2022-11-29T07:20:33.876Z,16.80
2022-11-29T07:23:12.201Z,18.38
2022-11-29T07:25:50.957Z,15.93
2022-11-29T07:28:30.860Z,15.93
2022-11-29T07:31:08.492Z,19.52
2022-11-29T07:33:45.067Z,18.90
2022-11-29T07:36:19.508Z,18.38
2022-11-29T07:38:59.587Z,19.08
2022-11-29T07:41:34.384Z,14.93
2022-11-29T07:44:11.382Z,17.15
2022-11-29T07:46:39.412Z,20.80
2022-11-29T07:49:10.502Z,20.58
2022-11-29T07:51:38.780Z,21.08
2022-11-29T07:54:08.364Z,18.23
2022-11-29T07:56:36.275Z,17.60
2022-11-29T07:59:04.273Z,18.35
2022-11-29T08:01:32.519Z,22.80
2022-11-29T08:04:00.553Z,19.52
2022-11-29T08:06:28.517Z,17.02
2022-11-29T08:08:58.413Z,26.13
2022-11-29T08:11:28.224Z,30.23
2022-11-29T08:13:57.453Z,15.88
2022-11-29T08:16:25.602Z,17.75
2022-11-29T08:18:53.611Z,18.50
2022-11-29T08:21:21.963Z,19.60
2022-11-29T08:23:51.079Z,18.23
2022-11-29T08:26:20.667Z,15.60
2022-11-29T08:28:53.187Z,20.42
2022-11-29T08:31:22.101Z,17.58
2022-11-29T08:33:50.079Z,15.85
2022-11-29T08:36:20.292Z,18.90
2022-11-29T08:38:49.023Z,16.65
2022-11-29T08:41:18.344Z,15.65
2022-11-29T08:43:46.531Z,18.38
2022-11-29T08:46:18.783Z,22.20
2022-11-29T08:48:47.348Z,17.92
2022-11-29T08:51:16.089Z,21.83
2022-11-29T08:53:43.410Z,16.75
2022-11-29T08:58:59.885Z,17.25
2022-11-29T09:01:30.117Z,14.23
2022-11-29T09:04:02.876Z,17.73
2022-11-29T09:06:32.723Z,17.67
2022-11-29T09:09:02.098Z,17.65
2022-11-29T09:11:31.269Z,14.38
2022-11-29T09:14:00.749Z,19.02
2022-11-29T09:16:33.412Z,17.65
2022-11-29T09:19:01.511Z,22.33
2022-11-29T09:21:32.185Z,19.85
2022-11-29T09:24:01.714Z,22.35
2022-11-29T09:26:31.949Z,23.67
2022-11-29T09:29:01.263Z,17.60
2022-11-29T09:31:32.217Z,18.30
2022-11-29T09:34:00.364Z,21.20
2022-11-29T09:36:30.690Z,17.85
2022-11-29T09:38:58.977Z,17.58
2022-11-29T09:41:48.175Z,20.08
2022-11-29T09:44:25.075Z,17.90
2022-11-29T09:47:02.861Z,17.77
2022-11-29T09:49:46.007Z,17.98
2022-11-29T09:52:23.197Z,17.48
2022-11-29T09:55:01.258Z,25.15
2022-11-29T09:57:30.746Z,22.00
2022-11-29T10:00:03.364Z,19.83
2022-11-29T10:02:45.283Z,21.40
2022-11-29T10:05:20.394Z,20.30
2022-11-29T10:07:52.395Z,18.00
2022-11-29T10:10:27.631Z,18.05
2022-11-29T10:13:01.510Z,22.48
2022-11-29T10:15:32.567Z,24.00
2022-11-29T10:18:06.046Z,20.10
2022-11-29T10:20:42.484Z,23.65
2022-11-29T10:23:21.221Z,24.92
2022-11-29T10:25:51.149Z,21.88
2022-11-29T10:28:21.832Z,22.38
2022-11-29T10:30:52.824Z,20.58
2022-11-29T10:33:26.431Z,25.67
2022-11-29T10:38:32.513Z,23.85
2022-11-29T10:41:10.056Z,21.73
2022-11-29T10:43:38.802Z,24.10
2022-11-29T10:46:12.868Z,24.65
2022-11-29T10:48:42.576Z,19.23
2022-11-29T10:51:18.040Z,23.30
2022-11-29T10:53:46.558Z,20.27
2022-11-29T10:56:22.326Z,21.80
2022-11-29T10:58:56.849Z,24.15
2022-11-29T11:01:26.329Z,20.85
2022-11-29T11:03:58.285Z,20.65
2022-11-29T11:06:29.417Z,20.33
2022-11-29T11:09:12.258Z,21.50
2022-11-29T11:11:40.743Z,23.65
2022-11-29T11:14:22.229Z,24.08
2022-11-29T11:16:50.869Z,23.10
2022-11-29T11:19:28.943Z,23.17
2022-11-29T11:21:58.651Z,19.40
2022-11-29T11:24:29.633Z,22.83
2022-11-29T11:26:58.797Z,28.13
2022-11-29T11:29:31.029Z,23.67
2022-11-29T11:32:00.923Z,20.88
2022-11-29T11:34:34.327Z,22.15
2022-11-29T11:39:50.985Z,22.23
2022-11-29T11:42:37.861Z,23.27
2022-11-29T11:45:24.130Z,25.10
2022-11-29T11:47:54.968Z,23.85
2022-11-29T11:50:33.816Z,21.17
2022-11-29T11:53:07.167Z,21.77
2022-11-29T11:55:38.514Z,26.63
2022-11-29T11:58:19.053Z,25.05
2022-11-29T12:01:06.329Z,29.52
2022-11-29T12:03:40.018Z,25.48
2022-11-29T12:08:45.799Z,23.92
2022-11-29T12:11:17.757Z,26.92
2022-11-29T12:13:50.026Z,28.35
2022-11-29T12:16:27.524Z,27.33
2022-11-29T12:19:02.644Z,29.80
2022-11-29T12:21:37.679Z,30.00
2022-11-29T12:24:19.937Z,27.17
2022-11-29T12:26:57.115Z,22.60
2022-11-29T12:29:29.796Z,26.67
2022-11-29T12:32:08.717Z,25.58
2022-11-29T12:34:59.820Z,29.75
2022-11-29T12:37:37.167Z,33.50
2022-11-29T12:40:14.539Z,27.85
2022-11-29T12:42:53.294Z,30.70
2022-11-29T12:45:35.436Z,39.58
2022-11-29T12:48:14.674Z,32.47
2022-11-29T12:50:55.634Z,29.00
2022-11-29T12:53:42.092Z,29.27
2022-11-29T12:56:16.391Z,32.35
2022-11-29T12:59:01.024Z,23.33
2022-11-29T13:01:37.795Z,25.48
2022-11-29T13:04:23.256Z,28.65
2022-11-29T13:06:58.865Z,25.38
2022-11-29T13:09:57.069Z,27.17
2022-11-29T13:12:33.945Z,26.13
2022-11-29T13:15:06.381Z,29.10
2022-11-29T13:17:42.310Z,28.35
2022-11-29T13:20:25.048Z,26.45
2022-11-29T13:22:58.446Z,22.67
2022-11-29T13:25:31.292Z,24.33
2022-11-29T13:28:04.659Z,24.65
2022-11-29T13:30:35.513Z,26.92
2022-11-29T13:33:09.390Z,29.17
2022-11-29T13:35:43.160Z,26.08
2022-11-29T13:38:19.534Z,30.38
2022-11-29T13:40:58.556Z,24.85
2022-11-29T13:43:33.967Z,26.38
2022-11-29T13:46:12.789Z,28.48
2022-11-29T13:48:48.994Z,30.13
2022-11-29T13:51:32.657Z,28.65
2022-11-29T13:54:03.392Z,24.67
2022-11-29T13:56:42.809Z,29.27
2022-11-29T13:59:18.579Z,27.90
2022-11-29T14:01:50.306Z,28.77
2022-11-29T14:04:29.973Z,30.50
2022-11-29T14:07:11.384Z,33.10
2022-11-29T14:09:48.431Z,31.90
2022-11-29T14:12:35.774Z,29.00
2022-11-29T14:15:16.165Z,29.15
2022-11-29T14:17:50.709Z,29.45
2022-11-29T14:20:59.180Z,30.75
2022-11-29T14:23:39.059Z,28.02
2022-11-29T14:26:28.745Z,26.10
2022-11-29T14:28:59.715Z,25.33
2022-11-29T14:31:51.483Z,24.10
2022-11-29T14:34:38.070Z,28.30
2022-11-29T14:37:18.459Z,27.30
2022-11-29T14:39:48.448Z,27.13
2022-11-29T14:42:19.014Z,22.85
2022-11-29T14:44:52.155Z,28.42
2022-11-29T14:47:25.071Z,27.77
2022-11-29T14:49:55.944Z,28.58
2022-11-29T14:52:29.364Z,24.10
2022-11-29T14:55:04.265Z,32.47
2022-11-29T14:57:54.952Z,28.33
2022-11-29T15:00:27.395Z,23.30
2022-11-29T15:02:59.981Z,27.27
2022-11-29T15:05:33.889Z,28.30
2022-11-29T15:08:10.430Z,28.65
2022-11-29T15:10:42.273Z,26.90
2022-11-29T15:13:14.500Z,24.20
2022-11-29T15:16:07.437Z,26.67
2022-11-29T15:19:09.002Z,28.27
2022-11-29T15:21:46.363Z,27.73
2022-11-29T15:24:16.930Z,28.13
2022-11-29T15:26:56.581Z,24.00
2022-11-29T15:29:24.815Z,27.88
2022-11-29T15:31:57.817Z,27.48
2022-11-29T15:34:32.430Z,29.70
2022-11-29T15:37:01.084Z,31.50
2022-11-29T15:39:31.371Z,29.83
2022-11-29T15:42:03.770Z,24.88
2022-11-29T15:44:33.667Z,25.17
2022-11-29T15:47:27.641Z,32.08
2022-11-29T15:49:55.829Z,29.95
2022-11-29T15:52:29.299Z,39.45
2022-11-29T15:55:01.850Z,30.30
2022-11-29T15:57:36.206Z,30.13
2022-11-29T16:00:08.277Z,34.88
2022-11-29T16:02:41.393Z,30.48
2022-11-29T16:05:17.207Z,26.67
2022-11-29T16:07:47.209Z,31.63
2022-11-29T16:10:18.431Z,34.38
2022-11-29T16:12:58.763Z,38.13
2022-11-29T16:15:30.264Z,28.42
2022-11-29T16:18:05.384Z,32.40
2022-11-29T16:20:33.545Z,43.78
2022-11-29T16:23:15.319Z,36.58
2022-11-29T16:25:59.774Z,31.00
2022-11-29T16:28:32.646Z,33.67
2022-11-29T16:31:00.747Z,37.35
2022-11-29T16:33:30.133Z,33.65
2022-11-29T16:36:06.886Z,33.85
2022-11-29T16:38:34.963Z,33.92
2022-11-29T16:41:08.304Z,32.08
2022-11-29T16:43:55.351Z,36.55
2022-11-29T16:46:38.447Z,32.00
2022-11-29T16:49:34.540Z,38.78
2022-11-29T16:52:03.631Z,42.95
2022-11-29T16:54:34.150Z,38.72
2022-11-29T16:57:05.942Z,41.60
2022-11-29T16:59:35.238Z,37.78
2022-11-29T17:02:04.673Z,35.55
2022-11-29T17:04:34.033Z,42.38
2022-11-29T17:07:02.190Z,32.88
2022-11-29T17:09:33.061Z,38.75
2022-11-29T17:12:01.925Z,44.92
2022-11-29T17:14:31.141Z,40.10
2022-11-29T17:17:02.559Z,39.05
2022-11-29T17:19:31.321Z,40.30
2022-11-29T17:22:00.720Z,37.22
2022-11-29T17:24:28.708Z,38.40
2022-11-29T17:26:56.789Z,46.90
2022-11-29T17:29:24.776Z,43.40
2022-11-29T17:31:53.442Z,43.22
2022-11-29T17:34:21.575Z,37.70
2022-11-29T17:36:49.582Z,38.67
2022-11-29T17:39:20.178Z,39.50
2022-11-29T17:41:48.519Z,47.33
2022-11-29T17:44:16.544Z,45.10
2022-11-29T17:46:44.566Z,47.90
2022-11-29T17:49:12.523Z,48.72
2022-11-29T17:51:56.446Z,46.10
2022-11-29T17:54:25.810Z,42.22
2022-11-29T17:56:53.811Z,44.08
2022-11-29T17:59:21.789Z,50.13
2022-11-29T18:01:49.875Z,50.58
2022-11-29T18:04:18.051Z,44.10
2022-11-29T18:06:49.677Z,48.28
2022-11-29T18:09:19.625Z,51.42
2022-11-29T18:11:50.630Z,51.10
2022-11-29T18:14:20.956Z,52.75
2022-11-29T18:16:49.285Z,46.70
2022-11-29T18:19:19.936Z,57.08
2022-11-29T18:21:49.614Z,52.60
2022-11-29T18:24:17.942Z,43.58
2022-11-29T18:26:46.370Z,54.78
2022-11-29T18:29:15.807Z,50.22
2022-11-29T18:31:45.958Z,51.75
2022-11-29T18:34:15.637Z,53.90
2022-11-29T18:36:45.626Z,51.22
2022-11-29T18:39:15.244Z,46.40
2022-11-29T18:41:45.021Z,53.53
2022-11-29T18:44:16.016Z,54.83
2022-11-29T18:46:45.807Z,55.67
2022-11-29T18:49:15.416Z,57.08
2022-11-29T18:51:45.644Z,62.15
2022-11-29T18:54:14.587Z,58.97
2022-11-29T18:56:43.820Z,58.22
2022-11-29T18:59:14.766Z,61.60
2022-11-29T19:01:45.357Z,57.78
2022-11-29T19:04:15.144Z,59.47
2022-11-29T19:06:44.110Z,50.25
2022-11-29T19:09:14.413Z,62.03
2022-11-29T19:11:42.721Z,60.10
2022-11-29T19:14:12.955Z,55.38
2022-11-29T19:16:42.656Z,56.40
2022-11-29T19:19:12.619Z,56.58
2022-11-29T19:21:40.925Z,60.28
2022-11-29T19:24:14.848Z,63.08
2022-11-29T19:26:45.374Z,61.70
2022-11-29T19:29:13.750Z,58.65
2022-11-29T19:31:42.400Z,61.70
2022-11-29T19:34:12.219Z,57.55
2022-11-29T19:36:43.118Z,58.17
2022-11-29T19:39:13.665Z,63.35
2022-11-29T19:41:43.984Z,57.25
2022-11-29T19:44:12.833Z,61.35
2022-11-29T19:46:42.632Z,59.10
2022-11-29T19:49:12.246Z,59.13
2022-11-29T19:51:40.355Z,59.95
2022-11-29T19:54:10.039Z,59.10
2022-11-29T19:56:38.913Z,54.58
2022-11-29T19:59:07.852Z,61.47
2022-11-29T20:01:43.639Z,58.67
2022-11-29T20:04:16.664Z,66.63
2022-11-29T20:06:46.583Z,77.07
2022-11-29T20:09:15.177Z,63.67
2022-11-29T20:11:43.866Z,63.90
2022-11-29T20:14:14.501Z,60.00
2022-11-29T20:16:43.541Z,69.13
2022-11-29T20:19:14.997Z,59.95
2022-11-29T20:21:44.797Z,52.22
2022-11-29T20:24:14.243Z,64.78
2022-11-29T20:26:45.014Z,59.58
2022-11-29T20:29:14.258Z,58.83
2022-11-29T20:31:49.601Z,60.65
2022-11-29T20:34:20.832Z,64.82
2022-11-29T20:37:13.055Z,64.55
2022-11-29T20:39:47.099Z,62.85
2022-11-29T20:42:37.483Z,59.47
2022-11-29T20:45:10.466Z,63.83
2022-11-29T20:47:45.811Z,56.60
2022-11-29T20:50:23.222Z,57.03
2022-11-29T20:53:02.932Z,61.75
2022-11-29T20:55:31.159Z,58.65
2022-11-29T20:57:59.161Z,60.53
2022-11-29T21:00:27.520Z,56.85
2022-11-29T21:02:55.573Z,57.90
2022-11-29T21:05:24.867Z,74.65
2022-11-29T21:07:52.869Z,77.03
2022-11-29T21:10:21.922Z,66.88
2022-11-29T21:12:50.407Z,67.10
2022-11-29T21:15:19.605Z,71.38
2022-11-29T21:17:48.245Z,76.43
2022-11-29T21:20:20.281Z,69.82
2022-11-29T21:22:55.515Z,78.65
2022-11-29T21:25:35.931Z,81.38
2022-11-29T21:28:09.452Z,68.85
2022-11-29T21:30:38.341Z,82.60
2022-11-29T21:33:06.967Z,78.68
2022-11-29T21:35:36.485Z,75.93
2022-11-29T21:38:05.868Z,72.13
2022-11-29T21:40:34.037Z,73.15
2022-11-29T21:43:02.029Z,72.80
2022-11-29T21:45:29.946Z,71.85
2022-11-29T21:48:00.815Z,75.28
2022-11-29T21:50:28.913Z,69.72
2022-11-29T21:52:57.579Z,73.20
2022-11-29T21:55:31.830Z,65.55
2022-11-29T21:58:00.380Z,66.03
2022-11-29T22:00:30.953Z,65.78
2022-11-29T22:03:02.482Z,71.30
2022-11-29T22:05:31.964Z,78.75
2022-11-29T22:08:00.198Z,69.55
2022-11-29T22:10:30.075Z,65.68
2022-11-29T22:12:59.293Z,65.85
2022-11-29T22:15:29.486Z,68.55
2022-11-29T22:17:57.542Z,63.53
2022-11-29T22:20:25.557Z,71.25
2022-11-29T22:22:58.406Z,68.78
2022-11-29T22:25:26.800Z,70.07
2022-11-29T22:27:56.112Z,69.63
2022-11-29T22:30:24.039Z,69.45
2022-11-29T22:32:52.025Z,59.45
2022-11-29T22:35:20.011Z,67.03
2022-11-29T22:37:48.005Z,62.47
2022-11-29T22:40:16.959Z,67.10
2022-11-29T22:42:44.892Z,63.30
2022-11-29T22:45:14.265Z,67.95
2022-11-29T22:47:42.248Z,63.42
2022-11-29T22:50:11.585Z,69.88
2022-11-29T22:52:39.511Z,66.00
2022-11-29T22:55:08.062Z,56.83
2022-11-29T22:57:36.402Z,58.75
2022-11-29T23:00:05.353Z,59.53
2022-11-29T23:02:34.777Z,61.55
2022-11-29T23:05:02.962Z,53.13
2022-11-29T23:07:31.107Z,58.25
2022-11-29T23:09:59.110Z,53.95
2022-11-29T23:12:27.083Z,58.72
2022-11-29T23:14:56.839Z,64.32
2022-11-29T23:17:25.230Z,53.28
2022-11-29T23:19:54.672Z,66.22
2022-11-29T23:22:22.649Z,59.60
2022-11-29T23:24:50.593Z,54.63
2022-11-29T23:27:18.544Z,56.60
2022-11-29T23:29:46.449Z,58.08
2022-11-29T23:32:14.512Z,52.83
2022-11-29T23:34:42.379Z,68.07
2022-11-29T23:37:11.628Z,57.08
2022-11-29T23:39:39.550Z,60.53
2022-11-29T23:42:07.504Z,60.95
2022-11-29T23:44:35.375Z,52.78
2022-11-29T23:47:03.329Z,52.63
2022-11-29T23:49:31.213Z,57.80
2022-11-29T23:51:59.142Z,54.38
2022-11-29T23:54:28.560Z,53.25
2022-11-29T23:56:56.495Z,53.08
2022-11-29T23:59:24.385Z,50.30
